Terminal Aerodrome Forecast
Issued by NWS

Home | Current Version | Previous Version | Text Only | Print | Product List | Glossary On
Versions: 1 2 3 4 5 6 7 8 9 10 11 12 13 14 15 16 17 18 19 20
000
FTUS46 KSTO 191757
TAFRDD
TAF
KRDD 191757Z 1918/2018 17024G32KT 6SM -RA OVC025
     FM200300 15016G26KT 5SM -RA OVC010
     FM201000 18020G30KT P6SM RA OVC015
     FM201500 18025G33KT P6SM RA OVC008=

USA.gov is the U.S. government's official web portal to all federal, state and local government web resources and services.